sensor_id;sensor_type;location;lat;lon;timestamp;P1;durP1;ratioP1;P2;durP2;ratioP2
36653;SDS011;22650;49.350;20.898;2022-10-31T00:02:09;8.43;;;3.95;;
36653;SDS011;22650;49.350;20.898;2022-10-31T00:04:42;8.25;;;4.30;;
36653;SDS011;22650;49.350;20.898;2022-10-31T00:07:16;6.60;;;3.38;;
36653;SDS011;22650;49.350;20.898;2022-10-31T00:09:49;5.82;;;3.42;;
36653;SDS011;22650;49.350;20.898;2022-10-31T00:12:23;7.05;;;3.72;;
36653;SDS011;22650;49.350;20.898;2022-10-31T00:14:57;6.57;;;2.83;;
36653;SDS011;22650;49.350;20.898;2022-10-31T00:17:31;3.35;;;2.28;;
36653;SDS011;22650;49.350;20.898;2022-10-31T00:20:08;7.18;;;3.25;;
36653;SDS011;22650;49.350;20.898;2022-10-31T00:22:42;5.68;;;3.28;;
36653;SDS011;22650;49.350;20.898;2022-10-31T00:25:15;4.43;;;3.10;;
36653;SDS011;22650;49.350;20.898;2022-10-31T00:27:48;5.70;;;3.05;;
36653;SDS011;22650;49.350;20.898;2022-10-31T00:30:23;8.38;;;3.65;;
36653;SDS011;22650;49.350;20.898;2022-10-31T00:32:57;4.88;;;2.67;;
36653;SDS011;22650;49.350;20.898;2022-10-31T00:35:31;6.53;;;3.55;;
36653;SDS011;22650;49.350;20.898;2022-10-31T00:38:04;7.57;;;3.33;;
36653;SDS011;22650;49.350;20.898;2022-10-31T00:40:38;4.55;;;2.83;;
36653;SDS011;22650;49.350;20.898;2022-10-31T00:43:11;27.73;;;3.83;;
36653;SDS011;22650;49.350;20.898;2022-10-31T00:45:46;4.65;;;2.65;;
36653;SDS011;22650;49.350;20.898;2022-10-31T00:48:19;5.25;;;2.55;;
36653;SDS011;22650;49.350;20.898;2022-10-31T00:50:53;6.45;;;2.90;;
36653;SDS011;22650;49.350;20.898;2022-10-31T00:53:27;6.05;;;2.92;;
36653;SDS011;22650;49.350;20.898;2022-10-31T00:56:00;4.45;;;2.80;;
36653;SDS011;22650;49.350;20.898;2022-10-31T00:58:34;3.95;;;2.55;;
36653;SDS011;22650;49.350;20.898;2022-10-31T01:01:08;5.05;;;2.95;;
36653;SDS011;22650;49.350;20.898;2022-10-31T01:03:42;4.10;;;2.72;;
36653;SDS011;22650;49.350;20.898;2022-10-31T01:06:16;3.88;;;2.50;;
36653;SDS011;22650;49.350;20.898;2022-10-31T01:08:50;3.75;;;2.78;;
36653;SDS011;22650;49.350;20.898;2022-10-31T01:11:23;5.63;;;2.78;;
36653;SDS011;22650;49.350;20.898;2022-10-31T01:13:57;8.05;;;3.22;;
36653;SDS011;22650;49.350;20.898;2022-10-31T01:16:32;4.82;;;3.10;;
36653;SDS011;22650;49.350;20.898;2022-10-31T01:19:05;5.00;;;3.00;;
36653;SDS011;22650;49.350;20.898;2022-10-31T01:21:38;3.20;;;2.50;;
36653;SDS011;22650;49.350;20.898;2022-10-31T01:24:12;3.45;;;2.28;;
36653;SDS011;22650;49.350;20.898;2022-10-31T01:26:45;10.65;;;3.13;;
36653;SDS011;22650;49.350;20.898;2022-10-31T01:29:19;4.70;;;2.92;;
36653;SDS011;22650;49.350;20.898;2022-10-31T01:31:54;3.40;;;2.42;;
36653;SDS011;22650;49.350;20.898;2022-10-31T01:34:28;5.20;;;2.53;;
36653;SDS011;22650;49.350;20.898;2022-10-31T01:37:01;4.03;;;2.65;;
36653;SDS011;22650;49.350;20.898;2022-10-31T01:39:36;5.25;;;3.20;;
36653;SDS011;22650;49.350;20.898;2022-10-31T01:42:10;6.55;;;2.10;;
36653;SDS011;22650;49.350;20.898;2022-10-31T01:44:51;3.55;;;2.33;;
36653;SDS011;22650;49.350;20.898;2022-10-31T01:47:33;4.15;;;2.10;;
36653;SDS011;22650;49.350;20.898;2022-10-31T01:50:12;3.92;;;2.58;;
36653;SDS011;22650;49.350;20.898;2022-10-31T01:52:53;3.63;;;2.40;;
36653;SDS011;22650;49.350;20.898;2022-10-31T01:55:28;3.35;;;2.17;;
36653;SDS011;22650;49.350;20.898;2022-10-31T01:58:05;4.00;;;2.47;;
36653;SDS011;22650;49.350;20.898;2022-10-31T02:00:43;3.55;;;2.40;;
36653;SDS011;22650;49.350;20.898;2022-10-31T02:03:22;2.08;;;1.77;;
36653;SDS011;22650;49.350;20.898;2022-10-31T02:05:56;6.60;;;2.47;;
36653;SDS011;22650;49.350;20.898;2022-10-31T02:08:31;2.60;;;1.83;;
36653;SDS011;22650;49.350;20.898;2022-10-31T02:11:07;6.30;;;3.00;;
36653;SDS011;22650;49.350;20.898;2022-10-31T02:13:41;5.35;;;2.30;;
36653;SDS011;22650;49.350;20.898;2022-10-31T02:16:15;4.82;;;2.60;;
36653;SDS011;22650;49.350;20.898;2022-10-31T02:18:50;2.50;;;2.03;;
36653;SDS011;22650;49.350;20.898;2022-10-31T02:21:24;3.60;;;2.40;;
36653;SDS011;22650;49.350;20.898;2022-10-31T02:24:16;2.40;;;1.83;;
36653;SDS011;22650;49.350;20.898;2022-10-31T02:27:17;4.03;;;2.35;;
36653;SDS011;22650;49.350;20.898;2022-10-31T02:30:06;2.92;;;1.85;;
36653;SDS011;22650;49.350;20.898;2022-10-31T02:32:58;3.78;;;2.08;;
36653;SDS011;22650;49.350;20.898;2022-10-31T02:35:43;3.33;;;1.90;;
36653;SDS011;22650;49.350;20.898;2022-10-31T02:38:29;3.58;;;2.00;;
36653;SDS011;22650;49.350;20.898;2022-10-31T02:41:16;4.38;;;2.33;;
36653;SDS011;22650;49.350;20.898;2022-10-31T02:43:58;4.32;;;2.22;;
36653;SDS011;22650;49.350;20.898;2022-10-31T02:46:38;2.92;;;2.15;;
36653;SDS011;22650;49.350;20.898;2022-10-31T02:49:23;7.80;;;2.55;;
36653;SDS011;22650;49.350;20.898;2022-10-31T02:51:59;4.47;;;2.20;;
36653;SDS011;22650;49.350;20.898;2022-10-31T02:54:33;3.75;;;2.40;;
36653;SDS011;22650;49.350;20.898;2022-10-31T02:57:06;4.03;;;2.67;;
36653;SDS011;22650;49.350;20.898;2022-10-31T02:59:42;5.28;;;2.20;;
36653;SDS011;22650;49.350;20.898;2022-10-31T03:02:25;3.75;;;2.05;;
36653;SDS011;22650;49.350;20.898;2022-10-31T03:05:14;6.90;;;2.55;;
36653;SDS011;22650;49.350;20.898;2022-10-31T03:08:01;8.93;;;2.40;;
36653;SDS011;22650;49.350;20.898;2022-10-31T03:10:43;3.30;;;2.10;;
36653;SDS011;22650;49.350;20.898;2022-10-31T03:13:28;5.38;;;2.30;;
36653;SDS011;22650;49.350;20.898;2022-10-31T03:16:08;3.95;;;2.45;;
36653;SDS011;22650;49.350;20.898;2022-10-31T03:18:49;4.82;;;2.95;;
36653;SDS011;22650;49.350;20.898;2022-10-31T03:21:28;3.88;;;2.25;;
36653;SDS011;22650;49.350;20.898;2022-10-31T03:24:05;5.18;;;2.38;;
36653;SDS011;22650;49.350;20.898;2022-10-31T03:26:41;3.38;;;2.28;;
36653;SDS011;22650;49.350;20.898;2022-10-31T03:29:18;3.75;;;2.63;;
36653;SDS011;22650;49.350;20.898;2022-10-31T03:31:55;2.47;;;2.08;;
36653;SDS011;22650;49.350;20.898;2022-10-31T03:34:32;3.70;;;2.38;;
36653;SDS011;22650;49.350;20.898;2022-10-31T03:37:10;3.38;;;2.13;;
36653;SDS011;22650;49.350;20.898;2022-10-31T03:39:47;3.67;;;2.05;;
36653;SDS011;22650;49.350;20.898;2022-10-31T03:42:27;7.18;;;2.47;;
36653;SDS011;22650;49.350;20.898;2022-10-31T03:45:03;5.32;;;1.98;;
36653;SDS011;22650;49.350;20.898;2022-10-31T03:47:40;2.63;;;2.00;;
36653;SDS011;22650;49.350;20.898;2022-10-31T03:50:16;6.82;;;2.08;;
36653;SDS011;22650;49.350;20.898;2022-10-31T03:52:53;3.15;;;1.50;;
36653;SDS011;22650;49.350;20.898;2022-10-31T03:55:31;3.42;;;1.83;;
36653;SDS011;22650;49.350;20.898;2022-10-31T03:58:12;2.20;;;1.48;;
36653;SDS011;22650;49.350;20.898;2022-10-31T04:00:51;2.85;;;1.45;;
36653;SDS011;22650;49.350;20.898;2022-10-31T04:03:30;3.95;;;1.80;;
36653;SDS011;22650;49.350;20.898;2022-10-31T04:06:06;2.78;;;1.45;;
36653;SDS011;22650;49.350;20.898;2022-10-31T04:08:45;2.13;;;1.83;;
36653;SDS011;22650;49.350;20.898;2022-10-31T04:11:23;3.40;;;1.98;;
36653;SDS011;22650;49.350;20.898;2022-10-31T04:14:29;3.35;;;1.90;;
36653;SDS011;22650;49.350;20.898;2022-10-31T04:17:07;3.30;;;1.70;;
36653;SDS011;22650;49.350;20.898;2022-10-31T04:19:45;16.90;;;2.63;;
36653;SDS011;22650;49.350;20.898;2022-10-31T04:22:19;2.40;;;1.80;;
36653;SDS011;22650;49.350;20.898;2022-10-31T04:24:54;4.85;;;1.80;;
36653;SDS011;22650;49.350;20.898;2022-10-31T04:27:27;36.25;;;2.88;;
36653;SDS011;22650;49.350;20.898;2022-10-31T04:30:01;3.97;;;1.48;;
36653;SDS011;22650;49.350;20.898;2022-10-31T04:32:37;2.38;;;1.88;;
36653;SDS011;22650;49.350;20.898;2022-10-31T04:35:11;8.38;;;2.45;;
36653;SDS011;22650;49.350;20.898;2022-10-31T04:37:45;23.77;;;2.28;;
36653;SDS011;22650;49.350;20.898;2022-10-31T04:40:20;2.83;;;1.73;;
36653;SDS011;22650;49.350;20.898;2022-10-31T04:43:12;3.28;;;1.83;;
36653;SDS011;22650;49.350;20.898;2022-10-31T04:45:48;4.20;;;1.73;;
36653;SDS011;22650;49.350;20.898;2022-10-31T04:48:22;1.88;;;1.63;;
36653;SDS011;22650;49.350;20.898;2022-10-31T04:50:58;3.33;;;1.33;;
36653;SDS011;22650;49.350;20.898;2022-10-31T04:53:32;2.38;;;1.55;;
36653;SDS011;22650;49.350;20.898;2022-10-31T04:56:29;1.48;;;1.38;;
36653;SDS011;22650;49.350;20.898;2022-10-31T04:59:05;2.13;;;1.40;;
36653;SDS011;22650;49.350;20.898;2022-10-31T05:01:49;1.65;;;1.15;;
36653;SDS011;22650;49.350;20.898;2022-10-31T05:04:31;2.17;;;1.33;;
36653;SDS011;22650;49.350;20.898;2022-10-31T05:07:06;1.30;;;1.10;;
36653;SDS011;22650;49.350;20.898;2022-10-31T05:09:40;1.30;;;0.93;;
36653;SDS011;22650;49.350;20.898;2022-10-31T05:12:14;1.83;;;1.30;;
36653;SDS011;22650;49.350;20.898;2022-10-31T05:15:07;5.00;;;1.80;;
36653;SDS011;22650;49.350;20.898;2022-10-31T05:17:59;2.58;;;1.70;;
36653;SDS011;22650;49.350;20.898;2022-10-31T05:20:57;2.28;;;1.60;;
36653;SDS011;22650;49.350;20.898;2022-10-31T05:23:41;1.60;;;1.15;;
36653;SDS011;22650;49.350;20.898;2022-10-31T05:26:19;3.35;;;1.45;;
36653;SDS011;22650;49.350;20.898;2022-10-31T05:28:54;2.15;;;1.38;;
36653;SDS011;22650;49.350;20.898;2022-10-31T05:31:28;1.85;;;1.23;;
36653;SDS011;22650;49.350;20.898;2022-10-31T05:34:01;3.67;;;1.88;;
36653;SDS011;22650;49.350;20.898;2022-10-31T05:37:05;3.30;;;1.60;;
36653;SDS011;22650;49.350;20.898;2022-10-31T05:39:39;2.08;;;1.55;;
36653;SDS011;22650;49.350;20.898;2022-10-31T05:42:18;2.03;;;1.33;;
36653;SDS011;22650;49.350;20.898;2022-10-31T05:44:53;2.70;;;1.75;;
36653;SDS011;22650;49.350;20.898;2022-10-31T05:50:30;0.95;;;0.77;;
36653;SDS011;22650;49.350;20.898;2022-10-31T05:53:12;4.00;;;1.30;;
36653;SDS011;22650;49.350;20.898;2022-10-31T05:55:46;3.53;;;1.50;;
36653;SDS011;22650;49.350;20.898;2022-10-31T05:58:23;2.35;;;1.65;;
36653;SDS011;22650;49.350;20.898;2022-10-31T06:01:10;2.90;;;1.40;;
36653;SDS011;22650;49.350;20.898;2022-10-31T06:03:43;3.53;;;1.63;;
36653;SDS011;22650;49.350;20.898;2022-10-31T06:06:20;1.52;;;1.30;;
36653;SDS011;22650;49.350;20.898;2022-10-31T06:08:53;3.92;;;1.60;;
36653;SDS011;22650;49.350;20.898;2022-10-31T06:11:27;2.00;;;1.30;;
36653;SDS011;22650;49.350;20.898;2022-10-31T06:14:06;3.05;;;2.13;;
36653;SDS011;22650;49.350;20.898;2022-10-31T06:17:00;3.47;;;1.70;;
36653;SDS011;22650;49.350;20.898;2022-10-31T06:19:51;3.13;;;1.70;;
36653;SDS011;22650;49.350;20.898;2022-10-31T06:22:26;2.03;;;1.20;;
36653;SDS011;22650;49.350;20.898;2022-10-31T06:25:00;2.13;;;1.25;;
36653;SDS011;22650;49.350;20.898;2022-10-31T06:27:37;1.65;;;1.30;;
36653;SDS011;22650;49.350;20.898;2022-10-31T06:30:17;2.08;;;1.35;;
36653;SDS011;22650;49.350;20.898;2022-10-31T06:32:52;2.25;;;1.40;;
36653;SDS011;22650;49.350;20.898;2022-10-31T06:35:25;2.70;;;1.27;;
36653;SDS011;22650;49.350;20.898;2022-10-31T06:37:58;1.80;;;1.48;;
36653;SDS011;22650;49.350;20.898;2022-10-31T06:40:39;2.97;;;1.42;;
36653;SDS011;22650;49.350;20.898;2022-10-31T06:43:22;2.53;;;1.63;;
36653;SDS011;22650;49.350;20.898;2022-10-31T06:46:09;8.00;;;2.40;;
36653;SDS011;22650;49.350;20.898;2022-10-31T06:48:51;5.05;;;2.85;;
36653;SDS011;22650;49.350;20.898;2022-10-31T06:51:36;3.28;;;2.00;;
36653;SDS011;22650;49.350;20.898;2022-10-31T06:54:09;4.25;;;2.30;;
36653;SDS011;22650;49.350;20.898;2022-10-31T06:56:42;3.22;;;1.77;;
36653;SDS011;22650;49.350;20.898;2022-10-31T06:59:18;7.32;;;2.42;;
36653;SDS011;22650;49.350;20.898;2022-10-31T07:02:10;3.90;;;1.73;;
36653;SDS011;22650;49.350;20.898;2022-10-31T07:04:47;7.38;;;2.80;;
36653;SDS011;22650;49.350;20.898;2022-10-31T07:07:22;4.72;;;2.28;;
36653;SDS011;22650;49.350;20.898;2022-10-31T07:09:55;3.70;;;1.73;;
36653;SDS011;22650;49.350;20.898;2022-10-31T07:13:05;6.25;;;1.80;;
36653;SDS011;22650;49.350;20.898;2022-10-31T07:15:41;3.67;;;2.08;;
36653;SDS011;22650;49.350;20.898;2022-10-31T07:18:15;5.43;;;1.85;;
36653;SDS011;22650;49.350;20.898;2022-10-31T07:20:51;5.13;;;2.20;;
36653;SDS011;22650;49.350;20.898;2022-10-31T07:23:25;2.97;;;1.67;;
36653;SDS011;22650;49.350;20.898;2022-10-31T07:26:19;3.53;;;2.40;;
36653;SDS011;22650;49.350;20.898;2022-10-31T07:28:53;5.13;;;2.35;;
36653;SDS011;22650;49.350;20.898;2022-10-31T07:31:28;3.30;;;1.83;;
36653;SDS011;22650;49.350;20.898;2022-10-31T07:34:08;2.65;;;1.60;;
36653;SDS011;22650;49.350;20.898;2022-10-31T07:37:00;2.63;;;1.45;;
36653;SDS011;22650;49.350;20.898;2022-10-31T07:39:34;2.97;;;1.98;;
36653;SDS011;22650;49.350;20.898;2022-10-31T07:42:08;6.22;;;2.35;;
36653;SDS011;22650;49.350;20.898;2022-10-31T07:44:46;3.28;;;2.05;;
36653;SDS011;22650;49.350;20.898;2022-10-31T07:47:43;2.25;;;1.60;;
36653;SDS011;22650;49.350;20.898;2022-10-31T07:50:53;5.15;;;2.20;;
36653;SDS011;22650;49.350;20.898;2022-10-31T07:53:47;5.18;;;2.30;;
36653;SDS011;22650;49.350;20.898;2022-10-31T07:56:27;3.20;;;2.07;;
36653;SDS011;22650;49.350;20.898;2022-10-31T07:59:01;2.88;;;2.25;;
36653;SDS011;22650;49.350;20.898;2022-10-31T08:01:34;3.25;;;1.80;;
36653;SDS011;22650;49.350;20.898;2022-10-31T08:04:28;2.75;;;1.98;;
36653;SDS011;22650;49.350;20.898;2022-10-31T08:07:20;6.27;;;2.67;;
36653;SDS011;22650;49.350;20.898;2022-10-31T08:10:01;5.82;;;2.20;;
36653;SDS011;22650;49.350;20.898;2022-10-31T08:12:35;4.10;;;2.40;;
36653;SDS011;22650;49.350;20.898;2022-10-31T08:15:11;2.70;;;2.10;;
36653;SDS011;22650;49.350;20.898;2022-10-31T08:17:45;8.07;;;3.05;;
36653;SDS011;22650;49.350;20.898;2022-10-31T08:20:18;5.20;;;2.47;;
36653;SDS011;22650;49.350;20.898;2022-10-31T08:22:53;4.57;;;2.42;;
36653;SDS011;22650;49.350;20.898;2022-10-31T08:25:29;6.53;;;3.45;;
36653;SDS011;22650;49.350;20.898;2022-10-31T08:28:09;7.13;;;3.08;;
36653;SDS011;22650;49.350;20.898;2022-10-31T08:30:46;2.50;;;1.90;;
36653;SDS011;22650;49.350;20.898;2022-10-31T08:33:51;4.13;;;2.40;;
36653;SDS011;22650;49.350;20.898;2022-10-31T08:36:44;4.50;;;2.95;;
36653;SDS011;22650;49.350;20.898;2022-10-31T08:39:28;4.40;;;2.70;;
36653;SDS011;22650;49.350;20.898;2022-10-31T08:42:04;4.15;;;2.88;;
36653;SDS011;22650;49.350;20.898;2022-10-31T08:44:38;3.88;;;2.20;;
36653;SDS011;22650;49.350;20.898;2022-10-31T08:47:11;4.38;;;2.83;;
36653;SDS011;22650;49.350;20.898;2022-10-31T08:49:45;3.33;;;2.30;;
36653;SDS011;22650;49.350;20.898;2022-10-31T08:52:18;3.97;;;2.45;;
36653;SDS011;22650;49.350;20.898;2022-10-31T08:55:15;4.20;;;2.67;;
36653;SDS011;22650;49.350;20.898;2022-10-31T08:58:08;3.85;;;3.00;;
36653;SDS011;22650;49.350;20.898;2022-10-31T09:00:50;7.88;;;2.63;;
36653;SDS011;22650;49.350;20.898;2022-10-31T09:03:26;5.90;;;2.50;;
36653;SDS011;22650;49.350;20.898;2022-10-31T09:06:02;4.65;;;2.50;;
36653;SDS011;22650;49.350;20.898;2022-10-31T09:08:40;4.63;;;2.20;;
36653;SDS011;22650;49.350;20.898;2022-10-31T09:11:14;3.15;;;1.90;;
36653;SDS011;22650;49.350;20.898;2022-10-31T09:14:09;5.03;;;2.50;;
36653;SDS011;22650;49.350;20.898;2022-10-31T09:16:43;3.85;;;2.40;;
36653;SDS011;22650;49.350;20.898;2022-10-31T09:19:25;2.25;;;1.88;;
36653;SDS011;22650;49.350;20.898;2022-10-31T09:21:58;4.78;;;1.92;;
36653;SDS011;22650;49.350;20.898;2022-10-31T09:24:33;5.00;;;2.13;;
36653;SDS011;22650;49.350;20.898;2022-10-31T09:27:06;2.22;;;1.45;;
36653;SDS011;22650;49.350;20.898;2022-10-31T09:29:45;1.73;;;1.40;;
36653;SDS011;22650;49.350;20.898;2022-10-31T09:32:20;2.67;;;1.45;;
36653;SDS011;22650;49.350;20.898;2022-10-31T09:34:54;1.95;;;1.20;;
36653;SDS011;22650;49.350;20.898;2022-10-31T09:37:28;2.08;;;1.50;;
36653;SDS011;22650;49.350;20.898;2022-10-31T09:40:01;3.08;;;1.80;;
36653;SDS011;22650;49.350;20.898;2022-10-31T09:42:48;3.35;;;1.90;;
36653;SDS011;22650;49.350;20.898;2022-10-31T09:45:33;2.83;;;1.38;;
36653;SDS011;22650;49.350;20.898;2022-10-31T09:48:29;2.45;;;1.20;;
36653;SDS011;22650;49.350;20.898;2022-10-31T09:54:17;5.40;;;1.90;;
36653;SDS011;22650;49.350;20.898;2022-10-31T09:56:55;2.58;;;1.58;;
36653;SDS011;22650;49.350;20.898;2022-10-31T09:59:30;2.42;;;1.70;;
36653;SDS011;22650;49.350;20.898;2022-10-31T10:02:13;3.25;;;1.58;;
36653;SDS011;22650;49.350;20.898;2022-10-31T10:04:52;3.33;;;1.65;;
36653;SDS011;22650;49.350;20.898;2022-10-31T10:07:32;5.03;;;1.42;;
36653;SDS011;22650;49.350;20.898;2022-10-31T10:10:17;2.67;;;1.48;;
36653;SDS011;22650;49.350;20.898;2022-10-31T10:13:21;3.08;;;2.13;;
36653;SDS011;22650;49.350;20.898;2022-10-31T10:16:19;2.88;;;1.58;;
36653;SDS011;22650;49.350;20.898;2022-10-31T10:19:10;3.05;;;1.70;;
36653;SDS011;22650;49.350;20.898;2022-10-31T10:21:57;2.95;;;2.17;;
36653;SDS011;22650;49.350;20.898;2022-10-31T10:24:42;2.72;;;1.70;;
36653;SDS011;22650;49.350;20.898;2022-10-31T10:27:26;3.05;;;1.80;;
36653;SDS011;22650;49.350;20.898;2022-10-31T10:30:11;3.40;;;2.00;;
36653;SDS011;22650;49.350;20.898;2022-10-31T10:32:46;4.57;;;1.40;;
36653;SDS011;22650;49.350;20.898;2022-10-31T10:35:25;3.13;;;1.42;;
36653;SDS011;22650;49.350;20.898;2022-10-31T10:38:02;2.75;;;1.95;;
36653;SDS011;22650;49.350;20.898;2022-10-31T10:40:43;2.50;;;1.67;;
36653;SDS011;22650;49.350;20.898;2022-10-31T10:43:19;4.55;;;2.10;;
36653;SDS011;22650;49.350;20.898;2022-10-31T10:45:58;2.47;;;1.58;;
36653;SDS011;22650;49.350;20.898;2022-10-31T10:49:08;8.05;;;2.90;;
36653;SDS011;22650;49.350;20.898;2022-10-31T10:51:50;16.75;;;7.38;;
36653;SDS011;22650;49.350;20.898;2022-10-31T10:54:54;3.35;;;2.58;;
36653;SDS011;22650;49.350;20.898;2022-10-31T11:00:30;5.28;;;2.38;;
36653;SDS011;22650;49.350;20.898;2022-10-31T11:03:07;4.50;;;1.95;;
36653;SDS011;22650;49.350;20.898;2022-10-31T11:05:43;6.47;;;2.08;;
36653;SDS011;22650;49.350;20.898;2022-10-31T11:08:24;4.60;;;2.05;;
36653;SDS011;22650;49.350;20.898;2022-10-31T11:10:59;4.18;;;2.05;;
36653;SDS011;22650;49.350;20.898;2022-10-31T11:13:34;3.05;;;1.35;;
36653;SDS011;22650;49.350;20.898;2022-10-31T11:16:09;4.93;;;1.85;;
36653;SDS011;22650;49.350;20.898;2022-10-31T11:18:45;1.92;;;1.40;;
36653;SDS011;22650;49.350;20.898;2022-10-31T11:21:20;4.43;;;2.22;;
36653;SDS011;22650;49.350;20.898;2022-10-31T11:24:02;4.60;;;1.88;;
36653;SDS011;22650;49.350;20.898;2022-10-31T11:26:36;5.78;;;1.88;;
36653;SDS011;22650;49.350;20.898;2022-10-31T11:29:13;10.18;;;2.30;;
36653;SDS011;22650;49.350;20.898;2022-10-31T11:31:49;3.67;;;2.03;;
36653;SDS011;22650;49.350;20.898;2022-10-31T11:34:28;4.60;;;1.63;;
36653;SDS011;22650;49.350;20.898;2022-10-31T11:37:15;1.70;;;1.30;;
36653;SDS011;22650;49.350;20.898;2022-10-31T11:39:53;2.63;;;1.67;;
36653;SDS011;22650;49.350;20.898;2022-10-31T11:42:30;3.15;;;1.60;;
36653;SDS011;22650;49.350;20.898;2022-10-31T11:45:13;10.15;;;2.03;;
36653;SDS011;22650;49.350;20.898;2022-10-31T11:47:49;5.40;;;2.00;;
36653;SDS011;22650;49.350;20.898;2022-10-31T11:50:32;3.13;;;1.80;;
36653;SDS011;22650;49.350;20.898;2022-10-31T11:53:11;3.97;;;2.47;;
36653;SDS011;22650;49.350;20.898;2022-10-31T11:55:50;6.88;;;1.83;;
36653;SDS011;22650;49.350;20.898;2022-10-31T11:58:36;6.78;;;1.77;;
36653;SDS011;22650;49.350;20.898;2022-10-31T12:01:21;3.00;;;1.55;;
36653;SDS011;22650;49.350;20.898;2022-10-31T12:03:59;2.35;;;1.45;;
36653;SDS011;22650;49.350;20.898;2022-10-31T12:06:39;2.17;;;1.52;;
36653;SDS011;22650;49.350;20.898;2022-10-31T12:09:17;3.45;;;1.25;;
36653;SDS011;22650;49.350;20.898;2022-10-31T12:11:57;2.83;;;1.75;;
36653;SDS011;22650;49.350;20.898;2022-10-31T12:14:50;3.00;;;1.55;;
36653;SDS011;22650;49.350;20.898;2022-10-31T12:17:31;2.85;;;1.58;;
36653;SDS011;22650;49.350;20.898;2022-10-31T12:20:12;8.70;;;2.28;;
36653;SDS011;22650;49.350;20.898;2022-10-31T12:22:56;3.22;;;1.92;;
36653;SDS011;22650;49.350;20.898;2022-10-31T12:25:38;4.13;;;1.58;;
36653;SDS011;22650;49.350;20.898;2022-10-31T12:28:25;3.20;;;1.77;;
36653;SDS011;22650;49.350;20.898;2022-10-31T12:31:22;2.72;;;1.70;;
36653;SDS011;22650;49.350;20.898;2022-10-31T12:34:12;6.03;;;1.85;;
36653;SDS011;22650;49.350;20.898;2022-10-31T12:40:00;4.28;;;1.85;;
36653;SDS011;22650;49.350;20.898;2022-10-31T12:42:50;4.70;;;1.98;;
36653;SDS011;22650;49.350;20.898;2022-10-31T12:45:39;5.05;;;1.70;;
36653;SDS011;22650;49.350;20.898;2022-10-31T12:48:31;4.22;;;1.70;;
36653;SDS011;22650;49.350;20.898;2022-10-31T12:51:28;2.97;;;2.00;;
36653;SDS011;22650;49.350;20.898;2022-10-31T12:54:13;4.13;;;1.55;;
36653;SDS011;22650;49.350;20.898;2022-10-31T12:57:01;3.70;;;1.90;;
36653;SDS011;22650;49.350;20.898;2022-10-31T12:59:45;3.28;;;1.60;;
36653;SDS011;22650;49.350;20.898;2022-10-31T13:02:26;3.42;;;1.50;;
36653;SDS011;22650;49.350;20.898;2022-10-31T13:05:04;2.45;;;1.40;;
36653;SDS011;22650;49.350;20.898;2022-10-31T13:07:45;1.40;;;1.27;;
36653;SDS011;22650;49.350;20.898;2022-10-31T13:10:22;6.25;;;2.05;;
36653;SDS011;22650;49.350;20.898;2022-10-31T13:13:00;4.85;;;2.00;;
36653;SDS011;22650;49.350;20.898;2022-10-31T13:15:44;2.03;;;1.17;;
36653;SDS011;22650;49.350;20.898;2022-10-31T13:18:25;4.38;;;1.95;;
36653;SDS011;22650;49.350;20.898;2022-10-31T13:21:03;2.25;;;1.80;;
36653;SDS011;22650;49.350;20.898;2022-10-31T13:23:42;2.78;;;1.60;;
36653;SDS011;22650;49.350;20.898;2022-10-31T13:26:35;2.35;;;1.50;;
36653;SDS011;22650;49.350;20.898;2022-10-31T13:29:13;4.43;;;2.10;;
36653;SDS011;22650;49.350;20.898;2022-10-31T13:31:51;3.25;;;1.92;;
36653;SDS011;22650;49.350;20.898;2022-10-31T13:34:33;6.57;;;2.05;;
36653;SDS011;22650;49.350;20.898;2022-10-31T13:37:12;3.45;;;1.80;;
36653;SDS011;22650;49.350;20.898;2022-10-31T13:39:55;6.03;;;2.30;;
36653;SDS011;22650;49.350;20.898;2022-10-31T13:42:42;5.00;;;2.20;;
36653;SDS011;22650;49.350;20.898;2022-10-31T13:45:24;4.65;;;1.83;;
36653;SDS011;22650;49.350;20.898;2022-10-31T13:47:59;4.22;;;2.30;;
36653;SDS011;22650;49.350;20.898;2022-10-31T13:50:35;2.75;;;2.05;;
36653;SDS011;22650;49.350;20.898;2022-10-31T13:53:12;6.22;;;2.05;;
36653;SDS011;22650;49.350;20.898;2022-10-31T13:56:01;3.17;;;2.28;;
36653;SDS011;22650;49.350;20.898;2022-10-31T13:58:38;7.43;;;2.72;;
36653;SDS011;22650;49.350;20.898;2022-10-31T14:01:15;3.30;;;2.22;;
36653;SDS011;22650;49.350;20.898;2022-10-31T14:03:56;4.65;;;2.20;;
36653;SDS011;22650;49.350;20.898;2022-10-31T14:06:47;4.13;;;2.08;;
36653;SDS011;22650;49.350;20.898;2022-10-31T14:09:30;3.22;;;2.40;;
36653;SDS011;22650;49.350;20.898;2022-10-31T14:12:06;4.30;;;2.40;;
36653;SDS011;22650;49.350;20.898;2022-10-31T14:14:43;4.30;;;2.10;;
36653;SDS011;22650;49.350;20.898;2022-10-31T14:17:21;5.45;;;2.72;;
36653;SDS011;22650;49.350;20.898;2022-10-31T14:20:00;4.20;;;2.53;;
36653;SDS011;22650;49.350;20.898;2022-10-31T14:22:55;6.55;;;3.20;;
36653;SDS011;22650;49.350;20.898;2022-10-31T14:25:34;3.35;;;2.28;;
36653;SDS011;22650;49.350;20.898;2022-10-31T14:28:18;3.83;;;2.83;;
36653;SDS011;22650;49.350;20.898;2022-10-31T14:30:54;6.45;;;3.28;;
36653;SDS011;22650;49.350;20.898;2022-10-31T14:33:29;4.88;;;3.13;;
36653;SDS011;22650;49.350;20.898;2022-10-31T14:36:08;4.97;;;2.67;;
36653;SDS011;22650;49.350;20.898;2022-10-31T14:38:52;4.90;;;3.13;;
36653;SDS011;22650;49.350;20.898;2022-10-31T14:41:35;6.53;;;3.70;;
36653;SDS011;22650;49.350;20.898;2022-10-31T14:44:29;6.57;;;3.20;;
36653;SDS011;22650;49.350;20.898;2022-10-31T14:47:24;6.22;;;3.30;;
36653;SDS011;22650;49.350;20.898;2022-10-31T14:50:18;12.25;;;3.80;;
36653;SDS011;22650;49.350;20.898;2022-10-31T14:53:03;5.30;;;2.92;;
36653;SDS011;22650;49.350;20.898;2022-10-31T14:55:41;4.93;;;3.30;;
36653;SDS011;22650;49.350;20.898;2022-10-31T14:58:18;4.70;;;3.45;;
36653;SDS011;22650;49.350;20.898;2022-10-31T15:00:54;5.10;;;3.25;;
36653;SDS011;22650;49.350;20.898;2022-10-31T15:03:30;6.03;;;3.53;;
36653;SDS011;22650;49.350;20.898;2022-10-31T15:06:09;7.63;;;4.53;;
36653;SDS011;22650;49.350;20.898;2022-10-31T15:08:45;8.57;;;5.32;;
36653;SDS011;22650;49.350;20.898;2022-10-31T15:11:22;8.23;;;3.72;;
36653;SDS011;22650;49.350;20.898;2022-10-31T15:13:57;7.80;;;4.05;;
36653;SDS011;22650;49.350;20.898;2022-10-31T15:16:32;11.38;;;5.88;;
36653;SDS011;22650;49.350;20.898;2022-10-31T15:19:09;7.38;;;3.90;;
36653;SDS011;22650;49.350;20.898;2022-10-31T15:21:49;7.55;;;4.25;;
36653;SDS011;22650;49.350;20.898;2022-10-31T15:24:24;5.97;;;4.07;;
36653;SDS011;22650;49.350;20.898;2022-10-31T15:27:03;8.65;;;4.50;;
36653;SDS011;22650;49.350;20.898;2022-10-31T15:29:46;8.95;;;5.03;;
36653;SDS011;22650;49.350;20.898;2022-10-31T15:32:21;7.28;;;4.72;;
36653;SDS011;22650;49.350;20.898;2022-10-31T15:34:56;10.05;;;5.57;;
36653;SDS011;22650;49.350;20.898;2022-10-31T15:37:31;11.82;;;6.15;;
36653;SDS011;22650;49.350;20.898;2022-10-31T15:40:06;11.25;;;5.60;;
36653;SDS011;22650;49.350;20.898;2022-10-31T15:42:49;6.40;;;4.03;;
36653;SDS011;22650;49.350;20.898;2022-10-31T15:45:26;8.40;;;4.63;;
36653;SDS011;22650;49.350;20.898;2022-10-31T15:48:02;7.60;;;3.72;;
36653;SDS011;22650;49.350;20.898;2022-10-31T15:50:45;8.35;;;3.92;;
36653;SDS011;22650;49.350;20.898;2022-10-31T15:53:21;11.65;;;5.07;;
36653;SDS011;22650;49.350;20.898;2022-10-31T15:55:58;9.80;;;4.85;;
36653;SDS011;22650;49.350;20.898;2022-10-31T15:58:39;11.27;;;4.32;;
36653;SDS011;22650;49.350;20.898;2022-10-31T16:01:19;6.50;;;4.88;;